Mammoth, AZ (85618)

09:46 PM MST on November 28, 2014 (GMT -0700)
San Manuel | Change Station
CLOSE
Current Station
Personligvejrstation
Location: San Manuel, AZ
Højde: 3461 ft
Vejrstationer i nærheden

Elev 3461 ft 32.61 °N, 110.63 °W | Updated 12 minutes ago

Klart
Klart
59.5 ° F
Føles som 59.5 ° F
N
2.7
Vind Skiftende Vind Vest

I dag
Høj -- | Lav -- ° F
--% Risiko for nedbør
I går
Høj -- | Lav -- ° F
Precip. -- tommer
7:04 AM 5:16 PM
Tiltagende halvmåne, 47% visible
Tryk 29.92 tommer
Sigtbarhed 10.0 mil
Skyer Klart
Dugpunkt 20 ° F
Luftfugtighed 21%
Regnmængde 0.00 tommer
Snedybde Ikke tilgængelig.
UV 0 fra 12
Pollen 4.00 fra 12
Luftkvalitet Ikke tilgængelig.
Flu Activity Ikke tilgængelig.
METAR KDMA 290358Z AUTO 15008KT 10SM CLR 14/M06 A2999 RMK AO2 SLP131 T01381056 $

More Conditions Fewer Conditions

Tryk 29.92 tommer
Sigtbarhed 10.0 mil
Skyer Klart
Dugpunkt 20 ° F
Luftfugtighed 21%
Regnmængde 0.00 tommer
Snedybde Ikke tilgængelig.
UV 0 fra 12
Pollen 4.00 fra 12
Luftkvalitet Ikke tilgængelig.
Flu Activity Ikke tilgængelig.
METAR KDMA 290358Z AUTO 15008KT 10SM CLR 14/M06 A2999 RMK AO2 SLP131 T01381056 $

More Conditions Fewer Conditions

10-Day Weather Forecast

Almanac

Astronomi

Nov. 28, 2014 Opgang Nedgang
Faktisktidspunkt
Civilttusmørke
Nautisktusmørke
Astronomisktusmørke
Måne
Synligtlys’ længde
Dagens længde
Tomorrow will be .
, % of the Moon is Illuminated

Ekstremer i dag

State Highs State Lows

Community

WunderPhotos

Upload Photos

1,774,413 Billeder uploaded!

WunderBlogs® & News

Nearby

Luftkvalitet

  Luftkvalitet AQ-indeks Forureningskilder
Not available.

Snedybde

Station Depth Højde

Jordskælvsaktivitet

By Distance Mag. Time & Date
Minimum magnitude displayed is 2.5.

Kystnære vandtemperaturer

Sted Temperatur

Vejrstationer i nærheden